Hales Corners, WI

7:57 AM CDT on July 30, 2016 (GMT -0500)
Foxwood Crossing | | Change Station

Elev 830 ft 42.96 °N, 88.06 °W | Updated 26 minutes ago

Mostly Cloudy
Mostly Cloudy
69.1 °F
Feels Like 69.1 °F
N
2.0
Wind Variable Wind from NE
Gusts 4.0 mph

Today
High -- | Low -- °F
--% Chance of Precip.
Yesterday
High -- | Low -- °F
Precip. -- in
Pressure 30.00 in
Visibility 10.0 miles
Clouds Scattered Clouds 900 ft
Mostly Cloudy 1500 ft
Mostly Cloudy 12000 ft
Dew Point 66 °F
Humidity 90%
Rainfall 0.00 in
Snow Depth Not available.
5:41 AM 8:14 PM
Waning Crescent, 13% visible
METAR KMKE 301252Z 08008KT 10SM SCT009 BKN015 BKN120 21/17 A3001 RMK AO2 SLP159 T02110172
Pressure 30.00 in
Visibility 10.0 miles
Clouds Scattered Clouds 900 ft
Mostly Cloudy 1500 ft
Mostly Cloudy 12000 ft
Dew Point 66 °F
Humidity 90%
Rainfall 0.00 in
Snow Depth Not available.
5:41 AM 8:14 PM
Waning Crescent, 13% visible
METAR KMKE 301252Z 08008KT 10SM SCT009 BKN015 BKN120 21/17 A3001 RMK AO2 SLP159 T02110172

10-Day Weather Forecast

Almanac

Astronomy

Jul. 30, 2016 Rise Set
Actual Time
Civil Twilight
Nautical Twilight
Astronomical Twilight
Moon
Length of Visible Light
Length of Day
Tomorrow will be .
, % of the Moon is Illuminated

Today's Extremes

State Highs State Lows

Community

WunderPhotos

Upload Photos

1,928,545 photos uploaded!

WunderBlog® & News

Nearby

Air Quality

  Air Quality AQ Index Pollutant
Not available.

Snow Depth

Station Depth Elevation

Earthquake Activity

City Distance Mag. Time & Date
Minimum magnitude displayed is 2.5.

Coastal Water Temperatures

Place Temperature

Stations

Nearby Weather Stations

Station Location Temp. Windchill Dew Point Humidity Wind Precip. Elev Updated Type
                   

Watches & Warnings

There are currently no watches in effect.